sensor_id;sensor_type;location;lat;lon;timestamp;P1;durP1;ratioP1;P2;durP2;ratioP2
17714;SDS011;8977;50.902;4.314;2023-05-10T00:01:45;8.33;;;5.80;;
17714;SDS011;8977;50.902;4.314;2023-05-10T00:04:12;8.30;;;6.27;;
17714;SDS011;8977;50.902;4.314;2023-05-10T00:06:39;8.13;;;5.67;;
17714;SDS011;8977;50.902;4.314;2023-05-10T00:09:06;9.23;;;6.10;;
17714;SDS011;8977;50.902;4.314;2023-05-10T00:11:34;8.10;;;5.70;;
17714;SDS011;8977;50.902;4.314;2023-05-10T00:14:01;8.40;;;5.77;;
17714;SDS011;8977;50.902;4.314;2023-05-10T00:16:28;10.03;;;5.97;;
17714;SDS011;8977;50.902;4.314;2023-05-10T00:18:55;7.73;;;5.67;;
17714;SDS011;8977;50.902;4.314;2023-05-10T00:21:22;8.30;;;5.70;;
17714;SDS011;8977;50.902;4.314;2023-05-10T00:23:49;9.77;;;5.97;;
17714;SDS011;8977;50.902;4.314;2023-05-10T00:26:16;9.13;;;6.53;;
17714;SDS011;8977;50.902;4.314;2023-05-10T00:28:44;10.03;;;5.80;;
17714;SDS011;8977;50.902;4.314;2023-05-10T00:31:11;8.80;;;5.87;;
17714;SDS011;8977;50.902;4.314;2023-05-10T00:33:39;10.03;;;6.30;;
17714;SDS011;8977;50.902;4.314;2023-05-10T00:36:06;8.37;;;6.47;;
17714;SDS011;8977;50.902;4.314;2023-05-10T00:38:34;9.40;;;6.30;;
17714;SDS011;8977;50.902;4.314;2023-05-10T00:41:01;9.77;;;6.13;;
17714;SDS011;8977;50.902;4.314;2023-05-10T00:43:27;8.37;;;6.13;;
17714;SDS011;8977;50.902;4.314;2023-05-10T00:45:56;10.97;;;7.00;;
17714;SDS011;8977;50.902;4.314;2023-05-10T00:48:23;9.27;;;6.73;;
17714;SDS011;8977;50.902;4.314;2023-05-10T00:50:50;9.30;;;6.60;;
17714;SDS011;8977;50.902;4.314;2023-05-10T00:53:17;9.07;;;6.47;;
17714;SDS011;8977;50.902;4.314;2023-05-10T00:55:45;9.30;;;6.53;;
17714;SDS011;8977;50.902;4.314;2023-05-10T00:58:12;9.57;;;6.13;;
17714;SDS011;8977;50.902;4.314;2023-05-10T01:00:39;8.13;;;6.43;;
17714;SDS011;8977;50.902;4.314;2023-05-10T01:03:10;9.37;;;6.33;;
17714;SDS011;8977;50.902;4.314;2023-05-10T01:05:38;11.10;;;6.83;;
17714;SDS011;8977;50.902;4.314;2023-05-10T01:08:05;9.67;;;7.07;;
17714;SDS011;8977;50.902;4.314;2023-05-10T01:10:33;10.10;;;6.93;;
17714;SDS011;8977;50.902;4.314;2023-05-10T01:13:00;12.50;;;6.93;;
17714;SDS011;8977;50.902;4.314;2023-05-10T01:15:28;9.60;;;6.67;;
17714;SDS011;8977;50.902;4.314;2023-05-10T01:17:56;9.73;;;7.10;;
17714;SDS011;8977;50.902;4.314;2023-05-10T01:20:24;10.47;;;7.50;;
17714;SDS011;8977;50.902;4.314;2023-05-10T01:26:03;9.90;;;7.93;;
17714;SDS011;8977;50.902;4.314;2023-05-10T01:32:03;10.50;;;7.53;;
17714;SDS011;8977;50.902;4.314;2023-05-10T01:34:38;12.13;;;7.93;;
17714;SDS011;8977;50.902;4.314;2023-05-10T01:37:16;11.30;;;7.23;;
17714;SDS011;8977;50.902;4.314;2023-05-10T01:39:49;9.17;;;7.40;;
17714;SDS011;8977;50.902;4.314;2023-05-10T01:42:21;11.00;;;7.30;;
17714;SDS011;8977;50.902;4.314;2023-05-10T01:44:53;10.93;;;7.87;;
17714;SDS011;8977;50.902;4.314;2023-05-10T01:47:28;10.00;;;7.00;;
17714;SDS011;8977;50.902;4.314;2023-05-10T01:50:04;10.20;;;7.60;;
17714;SDS011;8977;50.902;4.314;2023-05-10T01:52:36;9.93;;;7.53;;
17714;SDS011;8977;50.902;4.314;2023-05-10T01:55:07;12.50;;;8.20;;
17714;SDS011;8977;50.902;4.314;2023-05-10T01:57:39;9.43;;;7.07;;
17714;SDS011;8977;50.902;4.314;2023-05-10T02:00:10;11.10;;;8.20;;
17714;SDS011;8977;50.902;4.314;2023-05-10T02:02:42;10.60;;;8.17;;
17714;SDS011;8977;50.902;4.314;2023-05-10T02:05:12;10.77;;;8.17;;
17714;SDS011;8977;50.902;4.314;2023-05-10T02:07:40;11.77;;;8.20;;
17714;SDS011;8977;50.902;4.314;2023-05-10T02:10:09;11.60;;;8.70;;
17714;SDS011;8977;50.902;4.314;2023-05-10T02:12:38;11.03;;;8.70;;
17714;SDS011;8977;50.902;4.314;2023-05-10T02:15:10;13.20;;;7.70;;
17714;SDS011;8977;50.902;4.314;2023-05-10T02:17:39;10.93;;;7.60;;
17714;SDS011;8977;50.902;4.314;2023-05-10T02:20:08;11.67;;;8.30;;
17714;SDS011;8977;50.902;4.314;2023-05-10T02:22:36;13.47;;;8.07;;
17714;SDS011;8977;50.902;4.314;2023-05-10T02:25:04;12.47;;;8.70;;
17714;SDS011;8977;50.902;4.314;2023-05-10T02:27:34;12.50;;;8.50;;
17714;SDS011;8977;50.902;4.314;2023-05-10T02:30:03;14.53;;;7.87;;
17714;SDS011;8977;50.902;4.314;2023-05-10T02:32:33;13.40;;;8.97;;
17714;SDS011;8977;50.902;4.314;2023-05-10T02:35:02;14.27;;;9.30;;
17714;SDS011;8977;50.902;4.314;2023-05-10T02:37:31;12.37;;;8.40;;
17714;SDS011;8977;50.902;4.314;2023-05-10T02:39:59;12.73;;;9.30;;
17714;SDS011;8977;50.902;4.314;2023-05-10T02:42:29;12.20;;;8.67;;
17714;SDS011;8977;50.902;4.314;2023-05-10T02:45:00;11.70;;;8.27;;
17714;SDS011;8977;50.902;4.314;2023-05-10T02:47:31;12.30;;;9.23;;
17714;SDS011;8977;50.902;4.314;2023-05-10T02:49:58;14.43;;;9.23;;
17714;SDS011;8977;50.902;4.314;2023-05-10T02:52:30;11.67;;;8.57;;
17714;SDS011;8977;50.902;4.314;2023-05-10T02:55:06;12.37;;;8.50;;
17714;SDS011;8977;50.902;4.314;2023-05-10T02:57:38;13.53;;;9.17;;
17714;SDS011;8977;50.902;4.314;2023-05-10T03:00:09;12.73;;;9.40;;
17714;SDS011;8977;50.902;4.314;2023-05-10T03:02:37;12.00;;;9.23;;
17714;SDS011;8977;50.902;4.314;2023-05-10T03:05:04;12.13;;;9.33;;
17714;SDS011;8977;50.902;4.314;2023-05-10T03:07:33;12.80;;;8.77;;
17714;SDS011;8977;50.902;4.314;2023-05-10T03:10:00;14.73;;;9.47;;
17714;SDS011;8977;50.902;4.314;2023-05-10T03:12:31;15.30;;;10.17;;
17714;SDS011;8977;50.902;4.314;2023-05-10T03:15:10;15.63;;;10.37;;
17714;SDS011;8977;50.902;4.314;2023-05-10T03:17:44;13.20;;;10.17;;
17714;SDS011;8977;50.902;4.314;2023-05-10T03:20:16;15.03;;;9.90;;
17714;SDS011;8977;50.902;4.314;2023-05-10T03:22:51;12.50;;;9.97;;
17714;SDS011;8977;50.902;4.314;2023-05-10T03:25:21;14.80;;;10.93;;
17714;SDS011;8977;50.902;4.314;2023-05-10T03:27:49;16.03;;;10.63;;
17714;SDS011;8977;50.902;4.314;2023-05-10T03:30:18;14.07;;;10.73;;
17714;SDS011;8977;50.902;4.314;2023-05-10T03:32:46;14.03;;;10.20;;
17714;SDS011;8977;50.902;4.314;2023-05-10T03:35:13;15.93;;;11.40;;
17714;SDS011;8977;50.902;4.314;2023-05-10T03:37:40;15.83;;;11.37;;
17714;SDS011;8977;50.902;4.314;2023-05-10T03:40:08;15.27;;;11.50;;
17714;SDS011;8977;50.902;4.314;2023-05-10T03:42:36;13.80;;;11.03;;
17714;SDS011;8977;50.902;4.314;2023-05-10T03:45:03;15.73;;;11.60;;
17714;SDS011;8977;50.902;4.314;2023-05-10T03:47:30;17.07;;;11.37;;
17714;SDS011;8977;50.902;4.314;2023-05-10T03:49:57;16.70;;;11.50;;
17714;SDS011;8977;50.902;4.314;2023-05-10T03:52:24;16.20;;;10.87;;
17714;SDS011;8977;50.902;4.314;2023-05-10T03:54:51;14.10;;;11.20;;
17714;SDS011;8977;50.902;4.314;2023-05-10T03:57:19;16.57;;;11.40;;
17714;SDS011;8977;50.902;4.314;2023-05-10T03:59:46;16.67;;;12.23;;
17714;SDS011;8977;50.902;4.314;2023-05-10T04:02:13;14.90;;;10.97;;
17714;SDS011;8977;50.902;4.314;2023-05-10T04:04:40;17.00;;;13.10;;
17714;SDS011;8977;50.902;4.314;2023-05-10T04:07:07;15.20;;;11.50;;
17714;SDS011;8977;50.902;4.314;2023-05-10T04:09:35;15.73;;;12.10;;
17714;SDS011;8977;50.902;4.314;2023-05-10T04:12:02;16.50;;;12.00;;
17714;SDS011;8977;50.902;4.314;2023-05-10T04:14:31;15.90;;;12.40;;
17714;SDS011;8977;50.902;4.314;2023-05-10T04:16:57;16.80;;;11.80;;
17714;SDS011;8977;50.902;4.314;2023-05-10T04:19:28;16.73;;;11.77;;
17714;SDS011;8977;50.902;4.314;2023-05-10T04:21:55;15.53;;;12.33;;
17714;SDS011;8977;50.902;4.314;2023-05-10T04:24:22;16.17;;;12.20;;
17714;SDS011;8977;50.902;4.314;2023-05-10T04:26:49;15.90;;;12.60;;
17714;SDS011;8977;50.902;4.314;2023-05-10T04:29:17;18.67;;;13.10;;
17714;SDS011;8977;50.902;4.314;2023-05-10T04:31:46;17.47;;;12.63;;
17714;SDS011;8977;50.902;4.314;2023-05-10T04:34:14;16.77;;;12.90;;
17714;SDS011;8977;50.902;4.314;2023-05-10T04:36:40;16.17;;;12.17;;
17714;SDS011;8977;50.902;4.314;2023-05-10T04:39:08;15.00;;;12.87;;
17714;SDS011;8977;50.902;4.314;2023-05-10T04:41:35;18.50;;;13.90;;
17714;SDS011;8977;50.902;4.314;2023-05-10T04:44:03;17.70;;;13.20;;
17714;SDS011;8977;50.902;4.314;2023-05-10T04:46:30;20.40;;;14.03;;
17714;SDS011;8977;50.902;4.314;2023-05-10T04:48:59;17.23;;;13.37;;
17714;SDS011;8977;50.902;4.314;2023-05-10T04:51:26;18.80;;;14.80;;
17714;SDS011;8977;50.902;4.314;2023-05-10T04:53:52;18.40;;;13.77;;
17714;SDS011;8977;50.902;4.314;2023-05-10T04:56:20;18.20;;;13.43;;
17714;SDS011;8977;50.902;4.314;2023-05-10T04:58:47;17.27;;;13.67;;
17714;SDS011;8977;50.902;4.314;2023-05-10T05:01:14;20.53;;;14.77;;
17714;SDS011;8977;50.902;4.314;2023-05-10T05:03:41;17.73;;;14.53;;
17714;SDS011;8977;50.902;4.314;2023-05-10T05:06:09;19.70;;;14.57;;
17714;SDS011;8977;50.902;4.314;2023-05-10T05:08:36;16.93;;;13.83;;
17714;SDS011;8977;50.902;4.314;2023-05-10T05:11:03;17.30;;;13.53;;
17714;SDS011;8977;50.902;4.314;2023-05-10T05:13:30;18.83;;;13.57;;
17714;SDS011;8977;50.902;4.314;2023-05-10T05:15:59;18.97;;;14.23;;
17714;SDS011;8977;50.902;4.314;2023-05-10T05:18:27;19.73;;;13.60;;
17714;SDS011;8977;50.902;4.314;2023-05-10T05:20:54;20.90;;;13.10;;
17714;SDS011;8977;50.902;4.314;2023-05-10T05:23:22;18.63;;;13.60;;
17714;SDS011;8977;50.902;4.314;2023-05-10T05:25:51;19.23;;;14.00;;
17714;SDS011;8977;50.902;4.314;2023-05-10T05:28:18;16.40;;;13.53;;
17714;SDS011;8977;50.902;4.314;2023-05-10T05:30:44;19.67;;;14.13;;
17714;SDS011;8977;50.902;4.314;2023-05-10T05:33:12;20.27;;;14.37;;
17714;SDS011;8977;50.902;4.314;2023-05-10T05:35:40;18.00;;;13.37;;
17714;SDS011;8977;50.902;4.314;2023-05-10T05:38:07;16.40;;;13.97;;
17714;SDS011;8977;50.902;4.314;2023-05-10T05:40:36;19.33;;;14.13;;
17714;SDS011;8977;50.902;4.314;2023-05-10T05:43:03;18.93;;;13.47;;
17714;SDS011;8977;50.902;4.314;2023-05-10T05:45:30;19.57;;;13.77;;
17714;SDS011;8977;50.902;4.314;2023-05-10T05:47:57;17.40;;;14.07;;
17714;SDS011;8977;50.902;4.314;2023-05-10T05:50:24;19.33;;;14.17;;
17714;SDS011;8977;50.902;4.314;2023-05-10T05:52:50;16.03;;;13.43;;
17714;SDS011;8977;50.902;4.314;2023-05-10T05:55:17;21.27;;;14.73;;
17714;SDS011;8977;50.902;4.314;2023-05-10T05:57:46;22.50;;;16.13;;
17714;SDS011;8977;50.902;4.314;2023-05-10T06:00:13;19.93;;;15.60;;
17714;SDS011;8977;50.902;4.314;2023-05-10T06:02:40;20.87;;;15.43;;
17714;SDS011;8977;50.902;4.314;2023-05-10T06:05:08;21.73;;;16.30;;
17714;SDS011;8977;50.902;4.314;2023-05-10T06:07:35;22.47;;;15.40;;
17714;SDS011;8977;50.902;4.314;2023-05-10T06:10:02;23.13;;;15.50;;
17714;SDS011;8977;50.902;4.314;2023-05-10T06:12:29;20.60;;;15.23;;
17714;SDS011;8977;50.902;4.314;2023-05-10T06:14:57;19.93;;;14.10;;
17714;SDS011;8977;50.902;4.314;2023-05-10T06:17:24;17.07;;;12.93;;
17714;SDS011;8977;50.902;4.314;2023-05-10T06:19:51;17.83;;;13.57;;
17714;SDS011;8977;50.902;4.314;2023-05-10T06:22:18;20.60;;;13.63;;
17714;SDS011;8977;50.902;4.314;2023-05-10T06:24:46;20.40;;;13.80;;
17714;SDS011;8977;50.902;4.314;2023-05-10T06:27:13;19.83;;;14.50;;
17714;SDS011;8977;50.902;4.314;2023-05-10T06:29:40;20.43;;;14.57;;
17714;SDS011;8977;50.902;4.314;2023-05-10T06:32:08;23.73;;;15.60;;
17714;SDS011;8977;50.902;4.314;2023-05-10T06:34:36;18.53;;;13.70;;
17714;SDS011;8977;50.902;4.314;2023-05-10T06:37:02;18.40;;;13.90;;
17714;SDS011;8977;50.902;4.314;2023-05-10T06:39:29;21.03;;;13.77;;
17714;SDS011;8977;50.902;4.314;2023-05-10T06:41:56;22.33;;;14.77;;
17714;SDS011;8977;50.902;4.314;2023-05-10T06:44:23;22.00;;;14.60;;
17714;SDS011;8977;50.902;4.314;2023-05-10T06:46:50;20.77;;;14.23;;
17714;SDS011;8977;50.902;4.314;2023-05-10T06:49:20;21.90;;;15.30;;
17714;SDS011;8977;50.902;4.314;2023-05-10T06:51:47;21.03;;;14.37;;
17714;SDS011;8977;50.902;4.314;2023-05-10T06:54:14;23.20;;;15.17;;
17714;SDS011;8977;50.902;4.314;2023-05-10T06:56:41;19.33;;;14.37;;
17714;SDS011;8977;50.902;4.314;2023-05-10T06:59:07;21.40;;;14.87;;
17714;SDS011;8977;50.902;4.314;2023-05-10T07:01:34;23.93;;;15.20;;
17714;SDS011;8977;50.902;4.314;2023-05-10T07:04:01;23.83;;;14.77;;
17714;SDS011;8977;50.902;4.314;2023-05-10T07:06:30;27.40;;;15.97;;
17714;SDS011;8977;50.902;4.314;2023-05-10T07:08:56;23.50;;;15.90;;
17714;SDS011;8977;50.902;4.314;2023-05-10T07:11:23;24.87;;;15.77;;
17714;SDS011;8977;50.902;4.314;2023-05-10T07:13:50;25.43;;;15.83;;
17714;SDS011;8977;50.902;4.314;2023-05-10T07:16:17;23.10;;;15.10;;
17714;SDS011;8977;50.902;4.314;2023-05-10T07:18:44;24.83;;;15.37;;
17714;SDS011;8977;50.902;4.314;2023-05-10T07:21:11;23.13;;;15.37;;
17714;SDS011;8977;50.902;4.314;2023-05-10T07:23:39;27.33;;;15.63;;
17714;SDS011;8977;50.902;4.314;2023-05-10T07:26:06;19.70;;;13.93;;
17714;SDS011;8977;50.902;4.314;2023-05-10T07:28:34;23.37;;;14.43;;
17714;SDS011;8977;50.902;4.314;2023-05-10T07:31:02;22.43;;;15.20;;
17714;SDS011;8977;50.902;4.314;2023-05-10T07:33:29;24.00;;;13.63;;
17714;SDS011;8977;50.902;4.314;2023-05-10T07:35:56;21.60;;;13.90;;
17714;SDS011;8977;50.902;4.314;2023-05-10T07:38:23;21.37;;;13.63;;
17714;SDS011;8977;50.902;4.314;2023-05-10T07:40:52;21.93;;;12.80;;
17714;SDS011;8977;50.902;4.314;2023-05-10T07:43:19;20.17;;;12.17;;
17714;SDS011;8977;50.902;4.314;2023-05-10T07:45:45;17.43;;;11.10;;
17714;SDS011;8977;50.902;4.314;2023-05-10T07:48:12;19.23;;;11.57;;
17714;SDS011;8977;50.902;4.314;2023-05-10T07:50:39;18.73;;;11.63;;
17714;SDS011;8977;50.902;4.314;2023-05-10T07:53:06;16.97;;;10.37;;
17714;SDS011;8977;50.902;4.314;2023-05-10T07:55:33;12.90;;;9.40;;
17714;SDS011;8977;50.902;4.314;2023-05-10T07:58:01;14.77;;;9.40;;
17714;SDS011;8977;50.902;4.314;2023-05-10T08:00:29;14.80;;;8.73;;
17714;SDS011;8977;50.902;4.314;2023-05-10T08:02:56;13.83;;;9.40;;
17714;SDS011;8977;50.902;4.314;2023-05-10T08:05:22;14.93;;;8.23;;
17714;SDS011;8977;50.902;4.314;2023-05-10T08:07:49;18.33;;;8.53;;
17714;SDS011;8977;50.902;4.314;2023-05-10T08:10:16;13.97;;;8.53;;
17714;SDS011;8977;50.902;4.314;2023-05-10T08:12:43;13.90;;;9.10;;
17714;SDS011;8977;50.902;4.314;2023-05-10T08:15:12;13.83;;;8.77;;
17714;SDS011;8977;50.902;4.314;2023-05-10T08:17:38;11.97;;;8.27;;
17714;SDS011;8977;50.902;4.314;2023-05-10T08:20:06;12.73;;;8.57;;
17714;SDS011;8977;50.902;4.314;2023-05-10T08:22:33;13.83;;;8.70;;
17714;SDS011;8977;50.902;4.314;2023-05-10T08:25:00;12.60;;;7.97;;
17714;SDS011;8977;50.902;4.314;2023-05-10T08:27:27;11.90;;;8.17;;
17714;SDS011;8977;50.902;4.314;2023-05-10T08:29:54;9.40;;;7.73;;
17714;SDS011;8977;50.902;4.314;2023-05-10T08:32:22;13.43;;;7.73;;
17714;SDS011;8977;50.902;4.314;2023-05-10T08:34:50;9.63;;;7.07;;
17714;SDS011;8977;50.902;4.314;2023-05-10T08:37:17;10.73;;;7.87;;
17714;SDS011;8977;50.902;4.314;2023-05-10T08:39:44;12.03;;;8.13;;
17714;SDS011;8977;50.902;4.314;2023-05-10T08:42:12;13.33;;;7.87;;
17714;SDS011;8977;50.902;4.314;2023-05-10T08:44:45;11.00;;;7.63;;
17714;SDS011;8977;50.902;4.314;2023-05-10T08:47:15;12.43;;;7.97;;
17714;SDS011;8977;50.902;4.314;2023-05-10T08:49:45;11.30;;;7.67;;
17714;SDS011;8977;50.902;4.314;2023-05-10T08:52:16;11.93;;;7.60;;
17714;SDS011;8977;50.902;4.314;2023-05-10T08:54:43;10.50;;;7.83;;
17714;SDS011;8977;50.902;4.314;2023-05-10T08:57:10;11.07;;;7.63;;
17714;SDS011;8977;50.902;4.314;2023-05-10T08:59:37;12.20;;;8.07;;
17714;SDS011;8977;50.902;4.314;2023-05-10T09:02:05;10.83;;;7.90;;
17714;SDS011;8977;50.902;4.314;2023-05-10T09:04:32;10.93;;;7.67;;
17714;SDS011;8977;50.902;4.314;2023-05-10T09:07:00;10.17;;;7.43;;
17714;SDS011;8977;50.902;4.314;2023-05-10T09:09:27;10.73;;;7.47;;
17714;SDS011;8977;50.902;4.314;2023-05-10T09:11:55;14.20;;;8.50;;
17714;SDS011;8977;50.902;4.314;2023-05-10T09:14:21;10.07;;;7.27;;
17714;SDS011;8977;50.902;4.314;2023-05-10T09:16:50;10.10;;;8.00;;
17714;SDS011;8977;50.902;4.314;2023-05-10T09:19:18;10.93;;;8.37;;
17714;SDS011;8977;50.902;4.314;2023-05-10T09:21:45;10.07;;;8.23;;
17714;SDS011;8977;50.902;4.314;2023-05-10T09:24:14;12.97;;;8.33;;
17714;SDS011;8977;50.902;4.314;2023-05-10T09:26:45;11.57;;;8.73;;
17714;SDS011;8977;50.902;4.314;2023-05-10T09:29:13;11.60;;;8.33;;
17714;SDS011;8977;50.902;4.314;2023-05-10T09:31:43;12.63;;;8.70;;
17714;SDS011;8977;50.902;4.314;2023-05-10T09:34:15;13.93;;;8.63;;
17714;SDS011;8977;50.902;4.314;2023-05-10T09:36:52;12.43;;;8.07;;
17714;SDS011;8977;50.902;4.314;2023-05-10T09:39:22;10.33;;;7.83;;
17714;SDS011;8977;50.902;4.314;2023-05-10T09:41:57;11.10;;;8.27;;
17714;SDS011;8977;50.902;4.314;2023-05-10T09:44:25;10.47;;;7.50;;
17714;SDS011;8977;50.902;4.314;2023-05-10T09:46:52;10.63;;;6.83;;
17714;SDS011;8977;50.902;4.314;2023-05-10T09:49:19;11.60;;;7.80;;
17714;SDS011;8977;50.902;4.314;2023-05-10T09:51:47;10.63;;;6.70;;
17714;SDS011;8977;50.902;4.314;2023-05-10T09:54:24;9.27;;;7.20;;
17714;SDS011;8977;50.902;4.314;2023-05-10T09:56:51;8.77;;;6.77;;
17714;SDS011;8977;50.902;4.314;2023-05-10T09:59:18;11.07;;;7.27;;
17714;SDS011;8977;50.902;4.314;2023-05-10T10:01:49;9.40;;;7.10;;
17714;SDS011;8977;50.902;4.314;2023-05-10T10:04:16;9.57;;;7.57;;
17714;SDS011;8977;50.902;4.314;2023-05-10T10:06:43;9.07;;;6.90;;
17714;SDS011;8977;50.902;4.314;2023-05-10T10:09:10;9.27;;;7.07;;
17714;SDS011;8977;50.902;4.314;2023-05-10T10:11:39;8.57;;;6.90;;
17714;SDS011;8977;50.902;4.314;2023-05-10T10:14:06;10.90;;;7.70;;
17714;SDS011;8977;50.902;4.314;2023-05-10T10:16:33;11.50;;;7.50;;
17714;SDS011;8977;50.902;4.314;2023-05-10T10:19:00;10.17;;;6.90;;
17714;SDS011;8977;50.902;4.314;2023-05-10T10:21:27;9.23;;;7.43;;
17714;SDS011;8977;50.902;4.314;2023-05-10T10:23:55;8.37;;;7.13;;
17714;SDS011;8977;50.902;4.314;2023-05-10T10:26:22;9.93;;;7.27;;
17714;SDS011;8977;50.902;4.314;2023-05-10T10:28:56;11.93;;;7.33;;
17714;SDS011;8977;50.902;4.314;2023-05-10T10:31:32;7.63;;;6.70;;
17714;SDS011;8977;50.902;4.314;2023-05-10T10:34:05;10.20;;;6.47;;
17714;SDS011;8977;50.902;4.314;2023-05-10T10:36:33;7.67;;;6.37;;
17714;SDS011;8977;50.902;4.314;2023-05-10T10:39:08;8.57;;;6.50;;
17714;SDS011;8977;50.902;4.314;2023-05-10T10:41:38;8.60;;;6.83;;
17714;SDS011;8977;50.902;4.314;2023-05-10T10:44:35;9.03;;;6.60;;
17714;SDS011;8977;50.902;4.314;2023-05-10T10:47:07;8.90;;;6.43;;
17714;SDS011;8977;50.902;4.314;2023-05-10T10:50:02;11.07;;;6.60;;
17714;SDS011;8977;50.902;4.314;2023-05-10T10:52:30;8.30;;;5.93;;
17714;SDS011;8977;50.902;4.314;2023-05-10T10:55:00;6.90;;;6.20;;
17714;SDS011;8977;50.902;4.314;2023-05-10T10:57:33;7.90;;;6.97;;
17714;SDS011;8977;50.902;4.314;2023-05-10T11:00:21;8.70;;;6.90;;
17714;SDS011;8977;50.902;4.314;2023-05-10T11:02:50;7.10;;;5.57;;
17714;SDS011;8977;50.902;4.314;2023-05-10T11:05:26;7.40;;;5.53;;
17714;SDS011;8977;50.902;4.314;2023-05-10T11:08:07;7.93;;;5.63;;
17714;SDS011;8977;50.902;4.314;2023-05-10T11:10:39;7.07;;;5.67;;
17714;SDS011;8977;50.902;4.314;2023-05-10T11:13:16;7.40;;;5.30;;
17714;SDS011;8977;50.902;4.314;2023-05-10T11:15:55;7.20;;;6.13;;
17714;SDS011;8977;50.902;4.314;2023-05-10T11:18:24;7.43;;;5.80;;
17714;SDS011;8977;50.902;4.314;2023-05-10T11:20:54;7.23;;;5.73;;
17714;SDS011;8977;50.902;4.314;2023-05-10T11:23:23;7.67;;;5.83;;
17714;SDS011;8977;50.902;4.314;2023-05-10T11:25:55;7.60;;;5.97;;
17714;SDS011;8977;50.902;4.314;2023-05-10T11:28:22;9.00;;;5.90;;
17714;SDS011;8977;50.902;4.314;2023-05-10T11:30:49;7.90;;;5.83;;
17714;SDS011;8977;50.902;4.314;2023-05-10T11:33:19;9.30;;;6.40;;
17714;SDS011;8977;50.902;4.314;2023-05-10T11:35:46;8.63;;;6.23;;
17714;SDS011;8977;50.902;4.314;2023-05-10T11:38:13;8.20;;;6.03;;
17714;SDS011;8977;50.902;4.314;2023-05-10T11:40:40;7.37;;;6.33;;
17714;SDS011;8977;50.902;4.314;2023-05-10T11:43:08;9.83;;;7.27;;
17714;SDS011;8977;50.902;4.314;2023-05-10T11:45:36;9.90;;;7.53;;
17714;SDS011;8977;50.902;4.314;2023-05-10T11:48:03;11.77;;;8.23;;
17714;SDS011;8977;50.902;4.314;2023-05-10T11:50:32;8.53;;;7.57;;
17714;SDS011;8977;50.902;4.314;2023-05-10T11:52:59;12.90;;;7.93;;
17714;SDS011;8977;50.902;4.314;2023-05-10T11:55:25;12.03;;;8.40;;
17714;SDS011;8977;50.902;4.314;2023-05-10T11:57:55;9.17;;;7.53;;
17714;SDS011;8977;50.902;4.314;2023-05-10T12:00:26;11.03;;;7.83;;
17714;SDS011;8977;50.902;4.314;2023-05-10T12:02:53;11.80;;;9.10;;
17714;SDS011;8977;50.902;4.314;2023-05-10T12:05:20;10.13;;;8.23;;
17714;SDS011;8977;50.902;4.314;2023-05-10T12:07:48;9.83;;;8.17;;
17714;SDS011;8977;50.902;4.314;2023-05-10T12:10:15;10.00;;;7.10;;
17714;SDS011;8977;50.902;4.314;2023-05-10T12:12:43;9.50;;;8.20;;
17714;SDS011;8977;50.902;4.314;2023-05-10T12:15:12;8.70;;;7.27;;
17714;SDS011;8977;50.902;4.314;2023-05-10T12:17:45;10.63;;;8.40;;
17714;SDS011;8977;50.902;4.314;2023-05-10T12:20:13;10.30;;;8.47;;
17714;SDS011;8977;50.902;4.314;2023-05-10T12:22:40;10.57;;;8.50;;
17714;SDS011;8977;50.902;4.314;2023-05-10T12:25:11;12.70;;;8.37;;
17714;SDS011;8977;50.902;4.314;2023-05-10T12:27:38;8.67;;;7.80;;
17714;SDS011;8977;50.902;4.314;2023-05-10T12:30:05;12.47;;;8.17;;
17714;SDS011;8977;50.902;4.314;2023-05-10T12:32:39;9.77;;;8.47;;
17714;SDS011;8977;50.902;4.314;2023-05-10T12:35:07;9.80;;;8.30;;
17714;SDS011;8977;50.902;4.314;2023-05-10T12:37:34;10.87;;;8.43;;
17714;SDS011;8977;50.902;4.314;2023-05-10T12:40:05;9.70;;;7.93;;
17714;SDS011;8977;50.902;4.314;2023-05-10T12:42:35;10.23;;;8.07;;
17714;SDS011;8977;50.902;4.314;2023-05-10T12:45:02;9.77;;;8.33;;
17714;SDS011;8977;50.902;4.314;2023-05-10T12:47:30;10.90;;;8.73;;
17714;SDS011;8977;50.902;4.314;2023-05-10T12:49:57;10.30;;;8.60;;
17714;SDS011;8977;50.902;4.314;2023-05-10T12:52:25;9.73;;;8.47;;
17714;SDS011;8977;50.902;4.314;2023-05-10T12:54:52;10.03;;;7.83;;
17714;SDS011;8977;50.902;4.314;2023-05-10T12:57:19;9.50;;;8.23;;
17714;SDS011;8977;50.902;4.314;2023-05-10T12:59:48;12.33;;;8.90;;
17714;SDS011;8977;50.902;4.314;2023-05-10T13:02:15;9.90;;;7.70;;
17714;SDS011;8977;50.902;4.314;2023-05-10T13:04:43;11.00;;;9.10;;
17714;SDS011;8977;50.902;4.314;2023-05-10T13:07:11;11.40;;;9.33;;
17714;SDS011;8977;50.902;4.314;2023-05-10T13:09:38;9.73;;;8.57;;
17714;SDS011;8977;50.902;4.314;2023-05-10T13:12:05;11.40;;;8.00;;
17714;SDS011;8977;50.902;4.314;2023-05-10T13:14:32;10.77;;;8.73;;
17714;SDS011;8977;50.902;4.314;2023-05-10T13:17:00;9.37;;;8.17;;
17714;SDS011;8977;50.902;4.314;2023-05-10T13:19:27;9.53;;;8.23;;
17714;SDS011;8977;50.902;4.314;2023-05-10T13:21:54;9.70;;;7.90;;
17714;SDS011;8977;50.902;4.314;2023-05-10T13:24:21;10.60;;;8.60;;
17714;SDS011;8977;50.902;4.314;2023-05-10T13:26:48;10.10;;;8.47;;
17714;SDS011;8977;50.902;4.314;2023-05-10T13:29:15;9.40;;;8.30;;
17714;SDS011;8977;50.902;4.314;2023-05-10T13:31:43;10.10;;;8.07;;
17714;SDS011;8977;50.902;4.314;2023-05-10T13:34:11;10.93;;;9.07;;
17714;SDS011;8977;50.902;4.314;2023-05-10T13:36:38;9.33;;;8.30;;
17714;SDS011;8977;50.902;4.314;2023-05-10T13:39:05;11.00;;;7.60;;
17714;SDS011;8977;50.902;4.314;2023-05-10T13:41:32;9.30;;;7.67;;
17714;SDS011;8977;50.902;4.314;2023-05-10T13:43:59;10.83;;;7.97;;
17714;SDS011;8977;50.902;4.314;2023-05-10T13:46:26;10.67;;;9.10;;
17714;SDS011;8977;50.902;4.314;2023-05-10T13:48:53;12.40;;;8.07;;
17714;SDS011;8977;50.902;4.314;2023-05-10T13:51:21;12.70;;;9.63;;
17714;SDS011;8977;50.902;4.314;2023-05-10T13:53:48;10.48;;;9.43;;
17714;SDS011;8977;50.902;4.314;2023-05-10T13:56:15;12.55;;;9.65;;
17714;SDS011;8977;50.902;4.314;2023-05-10T13:58:42;11.30;;;9.40;;
17714;SDS011;8977;50.902;4.314;2023-05-10T14:01:09;13.90;;;10.00;;
17714;SDS011;8977;50.902;4.314;2023-05-10T14:03:37;10.93;;;9.13;;
17714;SDS011;8977;50.902;4.314;2023-05-10T14:06:04;9.50;;;8.23;;
17714;SDS011;8977;50.902;4.314;2023-05-10T14:08:33;14.67;;;10.50;;
17714;SDS011;8977;50.902;4.314;2023-05-10T14:11:00;14.63;;;11.63;;
17714;SDS011;8977;50.902;4.314;2023-05-10T14:13:27;15.60;;;12.68;;
17714;SDS011;8977;50.902;4.314;2023-05-10T14:15:54;14.98;;;12.18;;
17714;SDS011;8977;50.902;4.314;2023-05-10T14:18:21;14.17;;;11.40;;
17714;SDS011;8977;50.902;4.314;2023-05-10T14:20:48;14.50;;;10.85;;
17714;SDS011;8977;50.902;4.314;2023-05-10T14:23:15;15.13;;;11.98;;
17714;SDS011;8977;50.902;4.314;2023-05-10T14:25:43;13.43;;;11.97;;
17714;SDS011;8977;50.902;4.314;2023-05-10T14:28:10;15.67;;;11.70;;
17714;SDS011;8977;50.902;4.314;2023-05-10T14:30:37;15.18;;;11.63;;
17714;SDS011;8977;50.902;4.314;2023-05-10T14:33:04;13.13;;;11.35;;
17714;SDS011;8977;50.902;4.314;2023-05-10T14:35:32;12.02;;;10.68;;
17714;SDS011;8977;50.902;4.314;2023-05-10T14:37:59;12.95;;;10.65;;
17714;SDS011;8977;50.902;4.314;2023-05-10T14:40:26;13.15;;;9.95;;
17714;SDS011;8977;50.902;4.314;2023-05-10T14:42:55;14.30;;;10.73;;
17714;SDS011;8977;50.902;4.314;2023-05-10T14:45:22;13.23;;;10.50;;
17714;SDS011;8977;50.902;4.314;2023-05-10T14:47:49;14.57;;;10.93;;
17714;SDS011;8977;50.902;4.314;2023-05-10T14:50:16;13.90;;;10.98;;
17714;SDS011;8977;50.902;4.314;2023-05-10T14:52:43;11.98;;;9.40;;
17714;SDS011;8977;50.902;4.314;2023-05-10T14:55:10;16.58;;;11.27;;
17714;SDS011;8977;50.902;4.314;2023-05-10T14:57:37;10.67;;;8.67;;
17714;SDS011;8977;50.902;4.314;2023-05-10T15:00:06;10.55;;;8.10;;